sensor_id;sensor_type;location;lat;lon;timestamp;P1;durP1;ratioP1;P2;durP2;ratioP2
21663;SDS011;10993;52.510;13.456;2022-12-07T00:02:53;7.03;;;3.10;;
21663;SDS011;10993;52.510;13.456;2022-12-07T00:07:53;10.00;;;3.80;;
21663;SDS011;10993;52.510;13.456;2022-12-07T00:12:53;6.43;;;2.93;;
21663;SDS011;10993;52.510;13.456;2022-12-07T00:17:55;10.30;;;3.63;;
21663;SDS011;10993;52.510;13.456;2022-12-07T00:22:55;7.50;;;3.07;;
21663;SDS011;10993;52.510;13.456;2022-12-07T00:27:56;8.43;;;3.37;;
21663;SDS011;10993;52.510;13.456;2022-12-07T00:32:57;6.90;;;3.00;;
21663;SDS011;10993;52.510;13.456;2022-12-07T00:37:58;8.27;;;3.47;;
21663;SDS011;10993;52.510;13.456;2022-12-07T00:42:58;7.20;;;3.10;;
21663;SDS011;10993;52.510;13.456;2022-12-07T00:48:00;10.87;;;4.33;;
21663;SDS011;10993;52.510;13.456;2022-12-07T00:53:00;8.53;;;3.43;;
21663;SDS011;10993;52.510;13.456;2022-12-07T00:58:00;7.17;;;3.10;;
21663;SDS011;10993;52.510;13.456;2022-12-07T01:03:02;7.93;;;3.43;;
21663;SDS011;10993;52.510;13.456;2022-12-07T01:08:03;6.73;;;2.97;;
21663;SDS011;10993;52.510;13.456;2022-12-07T01:13:04;7.17;;;2.93;;
21663;SDS011;10993;52.510;13.456;2022-12-07T01:18:06;7.23;;;3.47;;
21663;SDS011;10993;52.510;13.456;2022-12-07T01:23:06;9.60;;;3.73;;
21663;SDS011;10993;52.510;13.456;2022-12-07T01:28:07;5.77;;;2.70;;
21663;SDS011;10993;52.510;13.456;2022-12-07T01:33:09;6.90;;;3.08;;
21663;SDS011;10993;52.510;13.456;2022-12-07T01:38:09;7.10;;;3.47;;
21663;SDS011;10993;52.510;13.456;2022-12-07T01:43:13;7.80;;;2.77;;
21663;SDS011;10993;52.510;13.456;2022-12-07T01:48:18;5.07;;;2.73;;
21663;SDS011;10993;52.510;13.456;2022-12-07T01:53:22;5.33;;;2.63;;
21663;SDS011;10993;52.510;13.456;2022-12-07T01:58:26;5.13;;;2.27;;
21663;SDS011;10993;52.510;13.456;2022-12-07T02:03:29;8.47;;;2.67;;
21663;SDS011;10993;52.510;13.456;2022-12-07T02:08:32;5.07;;;2.37;;
21663;SDS011;10993;52.510;13.456;2022-12-07T02:13:33;7.20;;;2.90;;
21663;SDS011;10993;52.510;13.456;2022-12-07T02:18:44;5.70;;;2.80;;
21663;SDS011;10993;52.510;13.456;2022-12-07T02:24:01;3.83;;;2.00;;
21663;SDS011;10993;52.510;13.456;2022-12-07T02:29:24;5.70;;;2.43;;
21663;SDS011;10993;52.510;13.456;2022-12-07T02:34:30;5.43;;;2.23;;
21663;SDS011;10993;52.510;13.456;2022-12-07T02:39:40;5.33;;;2.13;;
21663;SDS011;10993;52.510;13.456;2022-12-07T02:44:45;4.83;;;2.43;;
21663;SDS011;10993;52.510;13.456;2022-12-07T02:49:46;5.33;;;2.53;;
21663;SDS011;10993;52.510;13.456;2022-12-07T02:54:49;5.40;;;2.50;;
21663;SDS011;10993;52.510;13.456;2022-12-07T02:59:54;4.07;;;2.13;;
21663;SDS011;10993;52.510;13.456;2022-12-07T03:05:03;5.37;;;2.20;;
21663;SDS011;10993;52.510;13.456;2022-12-07T03:10:19;7.60;;;2.63;;
21663;SDS011;10993;52.510;13.456;2022-12-07T03:15:28;4.43;;;2.23;;
21663;SDS011;10993;52.510;13.456;2022-12-07T03:20:33;4.37;;;2.30;;
21663;SDS011;10993;52.510;13.456;2022-12-07T03:25:38;6.23;;;2.73;;
21663;SDS011;10993;52.510;13.456;2022-12-07T03:30:44;5.67;;;2.60;;
21663;SDS011;10993;52.510;13.456;2022-12-07T03:35:49;6.50;;;2.83;;
21663;SDS011;10993;52.510;13.456;2022-12-07T03:40:57;6.43;;;2.90;;
21663;SDS011;10993;52.510;13.456;2022-12-07T03:46:04;6.13;;;2.80;;
21663;SDS011;10993;52.510;13.456;2022-12-07T03:51:15;8.17;;;3.03;;
21663;SDS011;10993;52.510;13.456;2022-12-07T03:56:21;7.10;;;2.63;;
21663;SDS011;10993;52.510;13.456;2022-12-07T04:01:24;7.30;;;3.10;;
21663;SDS011;10993;52.510;13.456;2022-12-07T04:06:25;7.27;;;3.23;;
21663;SDS011;10993;52.510;13.456;2022-12-07T04:11:25;7.83;;;3.07;;
21663;SDS011;10993;52.510;13.456;2022-12-07T04:16:27;8.73;;;3.83;;
21663;SDS011;10993;52.510;13.456;2022-12-07T04:21:27;7.27;;;3.03;;
21663;SDS011;10993;52.510;13.456;2022-12-07T04:26:27;7.17;;;3.47;;
21663;SDS011;10993;52.510;13.456;2022-12-07T04:31:29;8.83;;;3.80;;
21663;SDS011;10993;52.510;13.456;2022-12-07T04:36:29;11.03;;;4.47;;
21663;SDS011;10993;52.510;13.456;2022-12-07T04:41:30;6.07;;;3.00;;
21663;SDS011;10993;52.510;13.456;2022-12-07T04:46:32;14.57;;;4.60;;
21663;SDS011;10993;52.510;13.456;2022-12-07T04:51:32;11.43;;;4.73;;
21663;SDS011;10993;52.510;13.456;2022-12-07T04:56:33;9.43;;;3.90;;
21663;SDS011;10993;52.510;13.456;2022-12-07T05:01:36;10.83;;;4.97;;
21663;SDS011;10993;52.510;13.456;2022-12-07T05:06:36;10.07;;;4.60;;
21663;SDS011;10993;52.510;13.456;2022-12-07T05:11:37;10.50;;;5.20;;
21663;SDS011;10993;52.510;13.456;2022-12-07T05:16:39;11.67;;;4.97;;
21663;SDS011;10993;52.510;13.456;2022-12-07T05:21:40;11.43;;;4.63;;
21663;SDS011;10993;52.510;13.456;2022-12-07T05:26:41;12.77;;;5.07;;
21663;SDS011;10993;52.510;13.456;2022-12-07T05:31:43;14.53;;;5.87;;
21663;SDS011;10993;52.510;13.456;2022-12-07T05:36:44;11.97;;;5.57;;
21663;SDS011;10993;52.510;13.456;2022-12-07T05:41:44;14.10;;;4.63;;
21663;SDS011;10993;52.510;13.456;2022-12-07T05:47:04;12.80;;;4.80;;
21663;SDS011;10993;52.510;13.456;2022-12-07T05:52:05;15.93;;;6.27;;
21663;SDS011;10993;52.510;13.456;2022-12-07T05:57:06;15.07;;;6.23;;
21663;SDS011;10993;52.510;13.456;2022-12-07T06:02:08;12.53;;;5.20;;
21663;SDS011;10993;52.510;13.456;2022-12-07T06:07:11;14.13;;;5.93;;
21663;SDS011;10993;52.510;13.456;2022-12-07T06:12:13;14.17;;;5.43;;
21663;SDS011;10993;52.510;13.456;2022-12-07T06:17:33;15.03;;;5.70;;
21663;SDS011;10993;52.510;13.456;2022-12-07T06:22:33;19.97;;;5.93;;
21663;SDS011;10993;52.510;13.456;2022-12-07T06:27:34;14.17;;;6.27;;
21663;SDS011;10993;52.510;13.456;2022-12-07T06:32:36;11.93;;;5.17;;
21663;SDS011;10993;52.510;13.456;2022-12-07T06:37:37;14.80;;;5.77;;
21663;SDS011;10993;52.510;13.456;2022-12-07T06:42:37;12.13;;;4.80;;
21663;SDS011;10993;52.510;13.456;2022-12-07T06:47:39;17.27;;;6.40;;
21663;SDS011;10993;52.510;13.456;2022-12-07T06:52:39;9.80;;;5.30;;
21663;SDS011;10993;52.510;13.456;2022-12-07T06:57:40;17.13;;;6.30;;
21663;SDS011;10993;52.510;13.456;2022-12-07T07:02:41;14.23;;;6.37;;
21663;SDS011;10993;52.510;13.456;2022-12-07T07:07:42;13.97;;;6.03;;
21663;SDS011;10993;52.510;13.456;2022-12-07T07:12:42;15.17;;;6.70;;
21663;SDS011;10993;52.510;13.456;2022-12-07T07:17:44;19.63;;;7.17;;
21663;SDS011;10993;52.510;13.456;2022-12-07T07:22:45;12.87;;;5.87;;
21663;SDS011;10993;52.510;13.456;2022-12-07T07:27:45;13.27;;;5.93;;
21663;SDS011;10993;52.510;13.456;2022-12-07T07:32:48;16.60;;;6.60;;
21663;SDS011;10993;52.510;13.456;2022-12-07T07:37:48;13.73;;;5.50;;
21663;SDS011;10993;52.510;13.456;2022-12-07T07:42:50;11.38;;;5.55;;
21663;SDS011;10993;52.510;13.456;2022-12-07T07:47:54;12.67;;;4.87;;
21663;SDS011;10993;52.510;13.456;2022-12-07T07:52:56;11.63;;;4.73;;
21663;SDS011;10993;52.510;13.456;2022-12-07T07:57:56;12.93;;;6.03;;
21663;SDS011;10993;52.510;13.456;2022-12-07T08:02:59;8.57;;;4.23;;
21663;SDS011;10993;52.510;13.456;2022-12-07T08:07:59;8.60;;;4.47;;
21663;SDS011;10993;52.510;13.456;2022-12-07T08:12:59;8.83;;;4.17;;
21663;SDS011;10993;52.510;13.456;2022-12-07T08:18:14;10.67;;;3.67;;
21663;SDS011;10993;52.510;13.456;2022-12-07T08:23:15;6.17;;;3.00;;
21663;SDS011;10993;52.510;13.456;2022-12-07T08:28:15;10.93;;;4.03;;
21663;SDS011;10993;52.510;13.456;2022-12-07T08:33:17;6.33;;;2.67;;
21663;SDS011;10993;52.510;13.456;2022-12-07T08:38:17;7.63;;;3.50;;
21663;SDS011;10993;52.510;13.456;2022-12-07T08:43:17;7.47;;;3.27;;
21663;SDS011;10993;52.510;13.456;2022-12-07T08:48:19;8.23;;;2.97;;
21663;SDS011;10993;52.510;13.456;2022-12-07T08:53:21;4.23;;;2.20;;
21663;SDS011;10993;52.510;13.456;2022-12-07T08:58:22;7.10;;;2.13;;
21663;SDS011;10993;52.510;13.456;2022-12-07T09:03:24;4.63;;;2.10;;
21663;SDS011;10993;52.510;13.456;2022-12-07T09:08:26;4.87;;;1.80;;
21663;SDS011;10993;52.510;13.456;2022-12-07T09:13:30;3.37;;;1.70;;
21663;SDS011;10993;52.510;13.456;2022-12-07T09:18:32;3.53;;;1.37;;
21663;SDS011;10993;52.510;13.456;2022-12-07T09:23:32;3.47;;;1.50;;
21663;SDS011;10993;52.510;13.456;2022-12-07T09:28:33;3.10;;;1.40;;
21663;SDS011;10993;52.510;13.456;2022-12-07T09:33:34;3.83;;;1.67;;
21663;SDS011;10993;52.510;13.456;2022-12-07T09:38:35;4.27;;;1.83;;
21663;SDS011;10993;52.510;13.456;2022-12-07T09:43:35;5.70;;;1.90;;
21663;SDS011;10993;52.510;13.456;2022-12-07T09:48:40;2.03;;;1.13;;
21663;SDS011;10993;52.510;13.456;2022-12-07T09:53:42;5.27;;;1.87;;
21663;SDS011;10993;52.510;13.456;2022-12-07T09:58:44;6.30;;;2.17;;
21663;SDS011;10993;52.510;13.456;2022-12-07T10:03:49;4.50;;;1.30;;
21663;SDS011;10993;52.510;13.456;2022-12-07T10:08:51;2.57;;;1.00;;
21663;SDS011;10993;52.510;13.456;2022-12-07T10:13:51;2.27;;;1.27;;
21663;SDS011;10993;52.510;13.456;2022-12-07T10:18:55;2.40;;;1.20;;
21663;SDS011;10993;52.510;13.456;2022-12-07T10:23:59;2.53;;;1.30;;
21663;SDS011;10993;52.510;13.456;2022-12-07T10:29:02;2.83;;;1.33;;
21663;SDS011;10993;52.510;13.456;2022-12-07T10:34:21;2.00;;;1.00;;
21663;SDS011;10993;52.510;13.456;2022-12-07T10:39:24;2.47;;;1.20;;
21663;SDS011;10993;52.510;13.456;2022-12-07T10:44:25;2.67;;;1.27;;
21663;SDS011;10993;52.510;13.456;2022-12-07T10:49:33;2.35;;;0.98;;
21663;SDS011;10993;52.510;13.456;2022-12-07T10:54:45;2.80;;;1.23;;
21663;SDS011;10993;52.510;13.456;2022-12-07T11:00:04;6.05;;;2.45;;
21663;SDS011;10993;52.510;13.456;2022-12-07T11:05:17;3.33;;;1.23;;
21663;SDS011;10993;52.510;13.456;2022-12-07T11:10:24;4.23;;;1.70;;
21663;SDS011;10993;52.510;13.456;2022-12-07T11:15:33;4.05;;;1.45;;
21663;SDS011;10993;52.510;13.456;2022-12-07T11:20:56;4.03;;;1.80;;
21663;SDS011;10993;52.510;13.456;2022-12-07T11:26:08;3.07;;;1.53;;
21663;SDS011;10993;52.510;13.456;2022-12-07T11:31:17;6.35;;;1.80;;
21663;SDS011;10993;52.510;13.456;2022-12-07T11:36:29;3.27;;;1.77;;
21663;SDS011;10993;52.510;13.456;2022-12-07T11:41:36;4.40;;;1.73;;
21663;SDS011;10993;52.510;13.456;2022-12-07T11:46:44;3.60;;;1.90;;
21663;SDS011;10993;52.510;13.456;2022-12-07T11:51:52;6.40;;;1.90;;
21663;SDS011;10993;52.510;13.456;2022-12-07T11:56:57;5.50;;;2.50;;
21663;SDS011;10993;52.510;13.456;2022-12-07T12:02:08;6.97;;;2.90;;
21663;SDS011;10993;52.510;13.456;2022-12-07T12:07:15;3.65;;;1.77;;
21663;SDS011;10993;52.510;13.456;2022-12-07T12:12:23;5.27;;;2.33;;
21663;SDS011;10993;52.510;13.456;2022-12-07T12:17:39;4.13;;;1.75;;
21663;SDS011;10993;52.510;13.456;2022-12-07T12:22:52;3.03;;;1.95;;
21663;SDS011;10993;52.510;13.456;2022-12-07T12:27:58;5.82;;;2.08;;
21663;SDS011;10993;52.510;13.456;2022-12-07T12:33:06;4.00;;;2.10;;
21663;SDS011;10993;52.510;13.456;2022-12-07T12:38:30;2.92;;;1.40;;
21663;SDS011;10993;52.510;13.456;2022-12-07T12:43:43;4.00;;;1.70;;
21663;SDS011;10993;52.510;13.456;2022-12-07T12:48:52;6.10;;;1.33;;
21663;SDS011;10993;52.510;13.456;2022-12-07T12:54:15;3.70;;;1.27;;
21663;SDS011;10993;52.510;13.456;2022-12-07T12:59:24;5.47;;;1.50;;
21663;SDS011;10993;52.510;13.456;2022-12-07T13:09:56;4.43;;;1.00;;
21663;SDS011;10993;52.510;13.456;2022-12-07T13:14:57;4.20;;;1.70;;
21663;SDS011;10993;52.510;13.456;2022-12-07T13:19:58;6.40;;;1.95;;
21663;SDS011;10993;52.510;13.456;2022-12-07T13:25:04;3.58;;;1.58;;
21663;SDS011;10993;52.510;13.456;2022-12-07T13:30:12;8.13;;;2.23;;
21663;SDS011;10993;52.510;13.456;2022-12-07T13:35:28;5.32;;;1.40;;
21663;SDS011;10993;52.510;13.456;2022-12-07T13:40:31;5.03;;;1.83;;
21663;SDS011;10993;52.510;13.456;2022-12-07T13:45:32;5.07;;;1.63;;
21663;SDS011;10993;52.510;13.456;2022-12-07T13:50:54;7.38;;;1.30;;
21663;SDS011;10993;52.510;13.456;2022-12-07T13:55:58;5.05;;;1.85;;
21663;SDS011;10993;52.510;13.456;2022-12-07T14:00:59;3.83;;;1.02;;
21663;SDS011;10993;52.510;13.456;2022-12-07T14:06:03;2.97;;;1.10;;
21663;SDS011;10993;52.510;13.456;2022-12-07T14:11:07;2.80;;;1.08;;
21663;SDS011;10993;52.510;13.456;2022-12-07T14:16:18;4.27;;;1.83;;
21663;SDS011;10993;52.510;13.456;2022-12-07T14:21:25;3.97;;;1.07;;
21663;SDS011;10993;52.510;13.456;2022-12-07T14:26:28;3.33;;;1.07;;
21663;SDS011;10993;52.510;13.456;2022-12-07T14:31:28;1.83;;;1.10;;
21663;SDS011;10993;52.510;13.456;2022-12-07T14:36:29;1.63;;;0.82;;
21663;SDS011;10993;52.510;13.456;2022-12-07T14:41:31;3.20;;;1.30;;
21663;SDS011;10993;52.510;13.456;2022-12-07T14:46:50;2.77;;;1.40;;
21663;SDS011;10993;52.510;13.456;2022-12-07T14:51:51;2.10;;;1.00;;
21663;SDS011;10993;52.510;13.456;2022-12-07T14:56:53;2.93;;;1.17;;
21663;SDS011;10993;52.510;13.456;2022-12-07T15:01:54;2.20;;;1.30;;
21663;SDS011;10993;52.510;13.456;2022-12-07T15:06:55;2.27;;;0.87;;
21663;SDS011;10993;52.510;13.456;2022-12-07T15:11:57;6.43;;;1.50;;
21663;SDS011;10993;52.510;13.456;2022-12-07T15:16:57;4.67;;;1.50;;
21663;SDS011;10993;52.510;13.456;2022-12-07T15:21:58;5.13;;;1.50;;
21663;SDS011;10993;52.510;13.456;2022-12-07T15:27:01;2.77;;;1.07;;
21663;SDS011;10993;52.510;13.456;2022-12-07T15:32:01;3.43;;;1.10;;
21663;SDS011;10993;52.510;13.456;2022-12-07T15:37:02;5.07;;;2.00;;
21663;SDS011;10993;52.510;13.456;2022-12-07T15:42:03;10.17;;;2.47;;
21663;SDS011;10993;52.510;13.456;2022-12-07T15:47:04;5.97;;;1.57;;
21663;SDS011;10993;52.510;13.456;2022-12-07T15:52:05;3.07;;;1.17;;
21663;SDS011;10993;52.510;13.456;2022-12-07T15:57:07;7.97;;;1.80;;
21663;SDS011;10993;52.510;13.456;2022-12-07T16:02:07;9.27;;;2.53;;
21663;SDS011;10993;52.510;13.456;2022-12-07T16:07:08;3.03;;;1.50;;
21663;SDS011;10993;52.510;13.456;2022-12-07T16:12:10;5.67;;;1.93;;
21663;SDS011;10993;52.510;13.456;2022-12-07T16:17:11;3.40;;;1.20;;
21663;SDS011;10993;52.510;13.456;2022-12-07T16:22:11;4.03;;;1.50;;
21663;SDS011;10993;52.510;13.456;2022-12-07T16:27:13;5.90;;;1.63;;
21663;SDS011;10993;52.510;13.456;2022-12-07T16:32:13;4.57;;;1.90;;
21663;SDS011;10993;52.510;13.456;2022-12-07T16:37:14;3.00;;;1.07;;
21663;SDS011;10993;52.510;13.456;2022-12-07T16:42:16;4.93;;;1.60;;
21663;SDS011;10993;52.510;13.456;2022-12-07T16:47:16;2.73;;;1.30;;
21663;SDS011;10993;52.510;13.456;2022-12-07T16:52:16;4.43;;;1.30;;
21663;SDS011;10993;52.510;13.456;2022-12-07T16:57:18;1.97;;;1.10;;
21663;SDS011;10993;52.510;13.456;2022-12-07T17:02:19;3.33;;;1.53;;
21663;SDS011;10993;52.510;13.456;2022-12-07T17:07:19;3.67;;;1.30;;
21663;SDS011;10993;52.510;13.456;2022-12-07T17:12:21;5.37;;;1.57;;
21663;SDS011;10993;52.510;13.456;2022-12-07T17:17:21;3.53;;;1.23;;
21663;SDS011;10993;52.510;13.456;2022-12-07T17:22:21;3.20;;;1.27;;
21663;SDS011;10993;52.510;13.456;2022-12-07T17:27:23;2.07;;;1.07;;
21663;SDS011;10993;52.510;13.456;2022-12-07T17:32:24;4.17;;;1.40;;
21663;SDS011;10993;52.510;13.456;2022-12-07T17:37:24;3.20;;;1.30;;
21663;SDS011;10993;52.510;13.456;2022-12-07T17:42:26;2.80;;;1.80;;
21663;SDS011;10993;52.510;13.456;2022-12-07T17:47:35;3.70;;;1.53;;
21663;SDS011;10993;52.510;13.456;2022-12-07T17:52:37;4.33;;;1.93;;
21663;SDS011;10993;52.510;13.456;2022-12-07T17:57:57;4.03;;;1.87;;
21663;SDS011;10993;52.510;13.456;2022-12-07T18:02:58;4.43;;;1.87;;
21663;SDS011;10993;52.510;13.456;2022-12-07T18:07:58;6.93;;;1.87;;
21663;SDS011;10993;52.510;13.456;2022-12-07T18:13:00;2.47;;;1.50;;
21663;SDS011;10993;52.510;13.456;2022-12-07T18:18:19;6.33;;;2.00;;
21663;SDS011;10993;52.510;13.456;2022-12-07T18:23:19;4.83;;;1.60;;
21663;SDS011;10993;52.510;13.456;2022-12-07T18:28:21;9.53;;;1.70;;
21663;SDS011;10993;52.510;13.456;2022-12-07T18:33:21;5.03;;;1.90;;
21663;SDS011;10993;52.510;13.456;2022-12-07T18:38:22;5.50;;;2.03;;
21663;SDS011;10993;52.510;13.456;2022-12-07T18:43:24;5.30;;;1.60;;
21663;SDS011;10993;52.510;13.456;2022-12-07T18:48:25;4.40;;;1.63;;
21663;SDS011;10993;52.510;13.456;2022-12-07T18:53:25;5.67;;;2.27;;
21663;SDS011;10993;52.510;13.456;2022-12-07T18:58:27;3.37;;;1.40;;
21663;SDS011;10993;52.510;13.456;2022-12-07T19:03:28;4.87;;;2.10;;
21663;SDS011;10993;52.510;13.456;2022-12-07T19:08:30;6.47;;;2.07;;
21663;SDS011;10993;52.510;13.456;2022-12-07T19:13:31;3.23;;;1.67;;
21663;SDS011;10993;52.510;13.456;2022-12-07T19:18:31;6.30;;;2.03;;
21663;SDS011;10993;52.510;13.456;2022-12-07T19:23:32;6.00;;;2.37;;
21663;SDS011;10993;52.510;13.456;2022-12-07T19:28:34;4.17;;;1.77;;
21663;SDS011;10993;52.510;13.456;2022-12-07T19:33:34;5.97;;;2.07;;
21663;SDS011;10993;52.510;13.456;2022-12-07T19:38:34;6.17;;;1.93;;
21663;SDS011;10993;52.510;13.456;2022-12-07T19:43:36;12.80;;;2.87;;
21663;SDS011;10993;52.510;13.456;2022-12-07T19:48:36;6.03;;;2.30;;
21663;SDS011;10993;52.510;13.456;2022-12-07T19:53:37;6.43;;;2.30;;
21663;SDS011;10993;52.510;13.456;2022-12-07T19:58:39;5.30;;;1.90;;
21663;SDS011;10993;52.510;13.456;2022-12-07T20:03:39;5.53;;;2.17;;
21663;SDS011;10993;52.510;13.456;2022-12-07T20:08:39;5.03;;;1.90;;
21663;SDS011;10993;52.510;13.456;2022-12-07T20:13:42;4.53;;;2.20;;
21663;SDS011;10993;52.510;13.456;2022-12-07T20:18:42;5.73;;;1.90;;
21663;SDS011;10993;52.510;13.456;2022-12-07T20:23:42;8.00;;;1.90;;
21663;SDS011;10993;52.510;13.456;2022-12-07T20:28:44;5.23;;;2.27;;
21663;SDS011;10993;52.510;13.456;2022-12-07T20:33:45;4.80;;;1.83;;
21663;SDS011;10993;52.510;13.456;2022-12-07T20:38:47;4.10;;;2.00;;
21663;SDS011;10993;52.510;13.456;2022-12-07T20:43:48;4.70;;;2.43;;
21663;SDS011;10993;52.510;13.456;2022-12-07T20:48:49;5.00;;;1.90;;
21663;SDS011;10993;52.510;13.456;2022-12-07T20:53:49;7.43;;;2.43;;
21663;SDS011;10993;52.510;13.456;2022-12-07T20:58:51;7.30;;;2.70;;
21663;SDS011;10993;52.510;13.456;2022-12-07T21:03:52;3.67;;;1.97;;
21663;SDS011;10993;52.510;13.456;2022-12-07T21:08:54;8.57;;;3.30;;
21663;SDS011;10993;52.510;13.456;2022-12-07T21:13:57;9.73;;;2.80;;
21663;SDS011;10993;52.510;13.456;2022-12-07T21:18:59;5.33;;;2.27;;
21663;SDS011;10993;52.510;13.456;2022-12-07T21:24:01;6.00;;;2.40;;
21663;SDS011;10993;52.510;13.456;2022-12-07T21:29:04;5.50;;;2.70;;
21663;SDS011;10993;52.510;13.456;2022-12-07T21:34:06;7.27;;;2.90;;
21663;SDS011;10993;52.510;13.456;2022-12-07T21:39:06;11.87;;;4.13;;
21663;SDS011;10993;52.510;13.456;2022-12-07T21:44:08;11.27;;;3.10;;
21663;SDS011;10993;52.510;13.456;2022-12-07T21:49:12;7.20;;;3.20;;
21663;SDS011;10993;52.510;13.456;2022-12-07T21:54:14;7.90;;;3.13;;
21663;SDS011;10993;52.510;13.456;2022-12-07T21:59:15;9.67;;;3.50;;
21663;SDS011;10993;52.510;13.456;2022-12-07T22:04:20;13.70;;;3.43;;
21663;SDS011;10993;52.510;13.456;2022-12-07T22:09:22;5.37;;;2.97;;
21663;SDS011;10993;52.510;13.456;2022-12-07T22:14:24;5.43;;;2.67;;
21663;SDS011;10993;52.510;13.456;2022-12-07T22:19:43;7.27;;;2.73;;
21663;SDS011;10993;52.510;13.456;2022-12-07T22:24:43;5.10;;;2.13;;
21663;SDS011;10993;52.510;13.456;2022-12-07T22:29:45;7.10;;;2.83;;
21663;SDS011;10993;52.510;13.456;2022-12-07T22:34:45;8.33;;;3.23;;
21663;SDS011;10993;52.510;13.456;2022-12-07T22:39:45;6.83;;;3.13;;
21663;SDS011;10993;52.510;13.456;2022-12-07T22:44:47;6.73;;;2.50;;
21663;SDS011;10993;52.510;13.456;2022-12-07T22:49:48;6.30;;;2.53;;
21663;SDS011;10993;52.510;13.456;2022-12-07T22:54:48;5.13;;;2.40;;
21663;SDS011;10993;52.510;13.456;2022-12-07T22:59:50;6.97;;;2.90;;
21663;SDS011;10993;52.510;13.456;2022-12-07T23:04:50;6.97;;;2.60;;
21663;SDS011;10993;52.510;13.456;2022-12-07T23:09:50;6.50;;;2.90;;
21663;SDS011;10993;52.510;13.456;2022-12-07T23:14:52;11.60;;;4.33;;
21663;SDS011;10993;52.510;13.456;2022-12-07T23:19:53;8.13;;;3.03;;
21663;SDS011;10993;52.510;13.456;2022-12-07T23:24:53;6.57;;;3.03;;
21663;SDS011;10993;52.510;13.456;2022-12-07T23:29:55;5.23;;;1.90;;
21663;SDS011;10993;52.510;13.456;2022-12-07T23:34:56;5.90;;;2.80;;
21663;SDS011;10993;52.510;13.456;2022-12-07T23:39:56;8.73;;;3.17;;
21663;SDS011;10993;52.510;13.456;2022-12-07T23:44:57;3.90;;;2.10;;
21663;SDS011;10993;52.510;13.456;2022-12-07T23:49:58;6.63;;;3.17;;
21663;SDS011;10993;52.510;13.456;2022-12-07T23:54:58;7.30;;;2.47;;
